sensor_id;sensor_type;location;lat;lon;timestamp;P1;durP1;ratioP1;P2;durP2;ratioP2
64560;SDS011;50960;46.838;16.838;2023-02-23T14:42:32;19.52;;;15.45;;
64560;SDS011;50960;46.838;16.838;2023-02-23T14:45:02;19.50;;;15.82;;
64560;SDS011;50960;46.838;16.838;2023-02-23T14:47:45;18.00;;;14.90;;
64560;SDS011;50960;46.838;16.838;2023-02-23T14:50:17;17.20;;;14.50;;
64560;SDS011;50960;46.838;16.838;2023-02-23T14:52:53;20.40;;;14.38;;
64560;SDS011;50960;46.838;16.838;2023-02-23T14:55:26;20.48;;;16.02;;
64560;SDS011;50960;46.838;16.838;2023-02-23T14:57:53;18.95;;;14.30;;
64560;SDS011;50960;46.838;16.838;2023-02-23T15:00:22;22.92;;;15.98;;
64560;SDS011;50960;46.838;16.838;2023-02-23T15:02:52;21.25;;;17.05;;
64560;SDS011;50960;46.838;16.838;2023-02-23T15:05:21;22.10;;;17.13;;
64560;SDS011;50960;46.838;16.838;2023-02-23T15:07:50;21.13;;;16.08;;
64560;SDS011;50960;46.838;16.838;2023-02-23T15:12:50;24.17;;;18.23;;
64560;SDS011;50960;46.838;16.838;2023-02-23T15:15:19;22.27;;;18.27;;
64560;SDS011;50960;46.838;16.838;2023-02-23T15:17:49;22.10;;;16.70;;
64560;SDS011;50960;46.838;16.838;2023-02-23T15:20:18;18.67;;;15.10;;
64560;SDS011;50960;46.838;16.838;2023-02-23T15:22:53;23.23;;;16.60;;
64560;SDS011;50960;46.838;16.838;2023-02-23T15:25:23;21.77;;;17.15;;
64560;SDS011;50960;46.838;16.838;2023-02-23T15:27:58;21.83;;;16.67;;
64560;SDS011;50960;46.838;16.838;2023-02-23T15:30:42;24.27;;;18.60;;
64560;SDS011;50960;46.838;16.838;2023-02-23T15:33:15;22.42;;;16.00;;
64560;SDS011;50960;46.838;16.838;2023-02-23T15:35:49;17.52;;;15.07;;
64560;SDS011;50960;46.838;16.838;2023-02-23T15:38:21;24.30;;;17.23;;
64560;SDS011;50960;46.838;16.838;2023-02-23T15:40:52;18.77;;;14.40;;
64560;SDS011;50960;46.838;16.838;2023-02-23T15:43:22;20.05;;;15.25;;
64560;SDS011;50960;46.838;16.838;2023-02-23T15:45:51;23.38;;;16.80;;
64560;SDS011;50960;46.838;16.838;2023-02-23T15:48:19;20.67;;;15.63;;
64560;SDS011;50960;46.838;16.838;2023-02-23T15:50:49;21.15;;;16.10;;
64560;SDS011;50960;46.838;16.838;2023-02-23T15:55:48;19.10;;;16.17;;
64560;SDS011;50960;46.838;16.838;2023-02-23T15:58:50;21.67;;;15.68;;
64560;SDS011;50960;46.838;16.838;2023-02-23T16:01:19;22.08;;;15.65;;
64560;SDS011;50960;46.838;16.838;2023-02-23T16:03:55;17.27;;;14.07;;
64560;SDS011;50960;46.838;16.838;2023-02-23T16:06:33;18.17;;;14.75;;
64560;SDS011;50960;46.838;16.838;2023-02-23T16:11:49;18.33;;;13.40;;
64560;SDS011;50960;46.838;16.838;2023-02-23T16:14:19;16.67;;;12.82;;
64560;SDS011;50960;46.838;16.838;2023-02-23T16:16:48;18.75;;;14.02;;
64560;SDS011;50960;46.838;16.838;2023-02-23T16:19:17;16.95;;;12.65;;
64560;SDS011;50960;46.838;16.838;2023-02-23T16:21:52;18.98;;;13.65;;
64560;SDS011;50960;46.838;16.838;2023-02-23T16:24:22;16.42;;;12.73;;
64560;SDS011;50960;46.838;16.838;2023-02-23T16:26:53;16.77;;;14.35;;
64560;SDS011;50960;46.838;16.838;2023-02-23T16:29:32;17.52;;;13.35;;
64560;SDS011;50960;46.838;16.838;2023-02-23T16:35:36;17.92;;;15.32;;
64560;SDS011;50960;46.838;16.838;2023-02-23T16:38:24;17.33;;;14.52;;
64560;SDS011;50960;46.838;16.838;2023-02-23T16:40:53;20.73;;;16.70;;
64560;SDS011;50960;46.838;16.838;2023-02-23T16:43:19;20.55;;;16.65;;
64560;SDS011;50960;46.838;16.838;2023-02-23T16:45:46;25.38;;;18.65;;
64560;SDS011;50960;46.838;16.838;2023-02-23T16:48:13;25.20;;;18.58;;
64560;SDS011;50960;46.838;16.838;2023-02-23T16:50:42;21.80;;;17.83;;
64560;SDS011;50960;46.838;16.838;2023-02-23T16:53:12;24.58;;;18.60;;
64560;SDS011;50960;46.838;16.838;2023-02-23T16:55:41;25.38;;;18.02;;
64560;SDS011;50960;46.838;16.838;2023-02-23T16:58:42;21.25;;;17.48;;
64560;SDS011;50960;46.838;16.838;2023-02-23T17:01:11;22.73;;;16.92;;
64560;SDS011;50960;46.838;16.838;2023-02-23T17:03:40;20.38;;;16.55;;
64560;SDS011;50960;46.838;16.838;2023-02-23T17:06:10;19.70;;;16.38;;
64560;SDS011;50960;46.838;16.838;2023-02-23T17:08:37;21.73;;;17.23;;
64560;SDS011;50960;46.838;16.838;2023-02-23T17:11:04;20.15;;;16.58;;
64560;SDS011;50960;46.838;16.838;2023-02-23T17:13:31;21.40;;;18.23;;
64560;SDS011;50960;46.838;16.838;2023-02-23T17:15:59;22.33;;;18.60;;
64560;SDS011;50960;46.838;16.838;2023-02-23T17:18:29;20.25;;;17.15;;
64560;SDS011;50960;46.838;16.838;2023-02-23T17:20:58;23.85;;;18.05;;
64560;SDS011;50960;46.838;16.838;2023-02-23T17:23:26;20.08;;;16.95;;
64560;SDS011;50960;46.838;16.838;2023-02-23T17:26:04;19.73;;;16.42;;
64560;SDS011;50960;46.838;16.838;2023-02-23T17:28:34;24.23;;;18.65;;
64560;SDS011;50960;46.838;16.838;2023-02-23T17:31:01;25.45;;;17.58;;
64560;SDS011;50960;46.838;16.838;2023-02-23T17:33:28;24.20;;;17.58;;
64560;SDS011;50960;46.838;16.838;2023-02-23T17:36:02;22.35;;;16.95;;
64560;SDS011;50960;46.838;16.838;2023-02-23T17:38:30;23.30;;;17.80;;
64560;SDS011;50960;46.838;16.838;2023-02-23T17:41:00;22.60;;;17.40;;
64560;SDS011;50960;46.838;16.838;2023-02-23T17:43:47;23.17;;;17.40;;
64560;SDS011;50960;46.838;16.838;2023-02-23T17:46:13;26.25;;;19.00;;
64560;SDS011;50960;46.838;16.838;2023-02-23T17:48:39;27.33;;;19.88;;
64560;SDS011;50960;46.838;16.838;2023-02-23T17:51:09;27.58;;;18.58;;
64560;SDS011;50960;46.838;16.838;2023-02-23T17:53:37;29.88;;;20.02;;
64560;SDS011;50960;46.838;16.838;2023-02-23T17:56:04;30.08;;;21.65;;
64560;SDS011;50960;46.838;16.838;2023-02-23T17:58:31;29.17;;;19.27;;
64560;SDS011;50960;46.838;16.838;2023-02-23T18:00:59;27.40;;;18.92;;
64560;SDS011;50960;46.838;16.838;2023-02-23T18:03:27;22.50;;;18.45;;
64560;SDS011;50960;46.838;16.838;2023-02-23T18:06:02;24.02;;;17.73;;
64560;SDS011;50960;46.838;16.838;2023-02-23T18:08:29;22.33;;;18.08;;
64560;SDS011;50960;46.838;16.838;2023-02-23T18:10:56;23.23;;;18.88;;
64560;SDS011;50960;46.838;16.838;2023-02-23T18:13:23;26.05;;;19.42;;
64560;SDS011;50960;46.838;16.838;2023-02-23T18:15:51;24.15;;;19.92;;
64560;SDS011;50960;46.838;16.838;2023-02-23T18:18:20;25.67;;;19.63;;
64560;SDS011;50960;46.838;16.838;2023-02-23T18:20:58;23.35;;;19.02;;
64560;SDS011;50960;46.838;16.838;2023-02-23T18:23:26;23.50;;;18.65;;
64560;SDS011;50960;46.838;16.838;2023-02-23T18:26:01;26.23;;;19.08;;
64560;SDS011;50960;46.838;16.838;2023-02-23T18:28:39;22.83;;;19.20;;
64560;SDS011;50960;46.838;16.838;2023-02-23T18:31:15;25.52;;;20.42;;
64560;SDS011;50960;46.838;16.838;2023-02-23T18:33:46;24.30;;;20.65;;
64560;SDS011;50960;46.838;16.838;2023-02-23T18:36:26;25.60;;;19.75;;
64560;SDS011;50960;46.838;16.838;2023-02-23T18:38:57;24.92;;;19.10;;
64560;SDS011;50960;46.838;16.838;2023-02-23T18:41:25;28.20;;;18.73;;
64560;SDS011;50960;46.838;16.838;2023-02-23T18:43:56;22.52;;;18.40;;
64560;SDS011;50960;46.838;16.838;2023-02-23T18:46:23;24.60;;;19.33;;
64560;SDS011;50960;46.838;16.838;2023-02-23T18:48:50;27.05;;;20.42;;
64560;SDS011;50960;46.838;16.838;2023-02-23T18:51:17;26.67;;;21.65;;
64560;SDS011;50960;46.838;16.838;2023-02-23T18:53:44;26.77;;;21.08;;
64560;SDS011;50960;46.838;16.838;2023-02-23T18:56:11;26.15;;;19.98;;
64560;SDS011;50960;46.838;16.838;2023-02-23T18:58:39;24.73;;;19.27;;
64560;SDS011;50960;46.838;16.838;2023-02-23T19:01:13;24.55;;;19.55;;
64560;SDS011;50960;46.838;16.838;2023-02-23T19:03:46;28.40;;;19.65;;
64560;SDS011;50960;46.838;16.838;2023-02-23T19:06:13;23.67;;;18.70;;
64560;SDS011;50960;46.838;16.838;2023-02-23T19:08:44;25.13;;;18.90;;
64560;SDS011;50960;46.838;16.838;2023-02-23T19:13:39;22.90;;;17.73;;
64560;SDS011;50960;46.838;16.838;2023-02-23T19:16:06;22.25;;;17.77;;
64560;SDS011;50960;46.838;16.838;2023-02-23T19:18:36;24.15;;;19.27;;
64560;SDS011;50960;46.838;16.838;2023-02-23T19:21:02;23.50;;;20.20;;
64560;SDS011;50960;46.838;16.838;2023-02-23T19:23:29;23.58;;;19.55;;
64560;SDS011;50960;46.838;16.838;2023-02-23T19:25:56;25.77;;;19.80;;
64560;SDS011;50960;46.838;16.838;2023-02-23T19:28:23;26.77;;;20.85;;
64560;SDS011;50960;46.838;16.838;2023-02-23T19:30:59;27.52;;;20.67;;
64560;SDS011;50960;46.838;16.838;2023-02-23T19:33:35;26.95;;;21.02;;
64560;SDS011;50960;46.838;16.838;2023-02-23T19:36:09;25.85;;;20.90;;
64560;SDS011;50960;46.838;16.838;2023-02-23T19:38:38;24.77;;;20.40;;
64560;SDS011;50960;46.838;16.838;2023-02-23T19:41:08;25.48;;;20.77;;
64560;SDS011;50960;46.838;16.838;2023-02-23T19:43:36;23.77;;;20.80;;
64560;SDS011;50960;46.838;16.838;2023-02-23T19:46:07;24.48;;;19.55;;
64560;SDS011;50960;46.838;16.838;2023-02-23T19:48:38;23.95;;;19.45;;
64560;SDS011;50960;46.838;16.838;2023-02-23T19:51:04;24.58;;;20.15;;
64560;SDS011;50960;46.838;16.838;2023-02-23T19:53:34;22.58;;;19.20;;
64560;SDS011;50960;46.838;16.838;2023-02-23T19:56:03;25.98;;;19.67;;
64560;SDS011;50960;46.838;16.838;2023-02-23T19:58:31;29.08;;;20.58;;
64560;SDS011;50960;46.838;16.838;2023-02-23T20:01:09;25.70;;;21.02;;
64560;SDS011;50960;46.838;16.838;2023-02-23T20:03:37;29.52;;;21.88;;
64560;SDS011;50960;46.838;16.838;2023-02-23T20:06:08;27.63;;;23.08;;
64560;SDS011;50960;46.838;16.838;2023-02-23T20:08:39;31.83;;;23.13;;
64560;SDS011;50960;46.838;16.838;2023-02-23T20:11:06;32.30;;;23.50;;
64560;SDS011;50960;46.838;16.838;2023-02-23T20:13:33;31.08;;;23.80;;
64560;SDS011;50960;46.838;16.838;2023-02-23T20:16:07;32.58;;;24.58;;
64560;SDS011;50960;46.838;16.838;2023-02-23T20:18:38;33.70;;;25.10;;
64560;SDS011;50960;46.838;16.838;2023-02-23T20:21:16;34.17;;;24.80;;
64560;SDS011;50960;46.838;16.838;2023-02-23T20:23:44;36.88;;;26.90;;
64560;SDS011;50960;46.838;16.838;2023-02-23T20:26:13;31.77;;;25.17;;
64560;SDS011;50960;46.838;16.838;2023-02-23T20:28:42;34.65;;;25.88;;
64560;SDS011;50960;46.838;16.838;2023-02-23T20:31:13;30.17;;;24.48;;
64560;SDS011;50960;46.838;16.838;2023-02-23T20:33:40;33.85;;;25.88;;
64560;SDS011;50960;46.838;16.838;2023-02-23T20:36:07;33.17;;;24.85;;
64560;SDS011;50960;46.838;16.838;2023-02-23T20:38:36;35.50;;;26.75;;
64560;SDS011;50960;46.838;16.838;2023-02-23T20:41:03;34.92;;;26.60;;
64560;SDS011;50960;46.838;16.838;2023-02-23T20:43:30;34.33;;;26.58;;
64560;SDS011;50960;46.838;16.838;2023-02-23T20:45:56;32.63;;;25.77;;
64560;SDS011;50960;46.838;16.838;2023-02-23T20:48:32;30.92;;;24.38;;
64560;SDS011;50960;46.838;16.838;2023-02-23T20:50:59;33.47;;;25.73;;
64560;SDS011;50960;46.838;16.838;2023-02-23T20:53:26;31.45;;;25.08;;
64560;SDS011;50960;46.838;16.838;2023-02-23T20:55:53;34.97;;;25.50;;
64560;SDS011;50960;46.838;16.838;2023-02-23T20:58:20;32.72;;;24.83;;
64560;SDS011;50960;46.838;16.838;2023-02-23T21:00:50;28.95;;;22.02;;
64560;SDS011;50960;46.838;16.838;2023-02-23T21:03:21;29.15;;;22.70;;
64560;SDS011;50960;46.838;16.838;2023-02-23T21:05:49;30.30;;;23.60;;
64560;SDS011;50960;46.838;16.838;2023-02-23T21:08:16;31.25;;;24.55;;
64560;SDS011;50960;46.838;16.838;2023-02-23T21:10:43;33.28;;;25.55;;
64560;SDS011;50960;46.838;16.838;2023-02-23T21:13:10;30.63;;;24.05;;
64560;SDS011;50960;46.838;16.838;2023-02-23T21:15:37;29.58;;;22.23;;
64560;SDS011;50960;46.838;16.838;2023-02-23T21:18:05;29.67;;;23.10;;
64560;SDS011;50960;46.838;16.838;2023-02-23T21:20:32;29.27;;;22.55;;
64560;SDS011;50960;46.838;16.838;2023-02-23T21:23:00;27.67;;;23.05;;
64560;SDS011;50960;46.838;16.838;2023-02-23T21:25:28;30.10;;;22.98;;
64560;SDS011;50960;46.838;16.838;2023-02-23T21:27:55;27.63;;;21.30;;
64560;SDS011;50960;46.838;16.838;2023-02-23T21:30:22;28.27;;;22.40;;
64560;SDS011;50960;46.838;16.838;2023-02-23T21:32:50;28.98;;;21.38;;
64560;SDS011;50960;46.838;16.838;2023-02-23T21:35:17;27.25;;;20.67;;
64560;SDS011;50960;46.838;16.838;2023-02-23T21:37:44;25.95;;;20.50;;
64560;SDS011;50960;46.838;16.838;2023-02-23T21:40:13;24.92;;;21.00;;
64560;SDS011;50960;46.838;16.838;2023-02-23T21:42:50;26.77;;;22.27;;
64560;SDS011;50960;46.838;16.838;2023-02-23T21:45:17;28.48;;;23.00;;
64560;SDS011;50960;46.838;16.838;2023-02-23T21:47:44;30.45;;;23.90;;
64560;SDS011;50960;46.838;16.838;2023-02-23T21:50:12;29.00;;;22.92;;
64560;SDS011;50960;46.838;16.838;2023-02-23T21:52:40;30.20;;;23.17;;
64560;SDS011;50960;46.838;16.838;2023-02-23T21:55:11;30.33;;;23.85;;
64560;SDS011;50960;46.838;16.838;2023-02-23T21:57:40;30.00;;;22.03;;
64560;SDS011;50960;46.838;16.838;2023-02-23T22:00:08;30.52;;;22.60;;
64560;SDS011;50960;46.838;16.838;2023-02-23T22:02:36;27.38;;;21.70;;
64560;SDS011;50960;46.838;16.838;2023-02-23T22:05:08;28.80;;;21.60;;
